Time;durP1;ratioP1;P1;durP2;ratioP2;P2;SDS_P1;SDS_P2;PMS_P1;PMS_P2;Temp;Humidity;BMP_temperature;BMP_pressure;BME280_temperature;BME280_humidity;BME280_pressure;Samples;Min_cycle;Max_cycle;Signal;HPM_P1;HPM_P2
2022/03/23 00:00:47;;;;;;;26.75;13.80;;;;;;;6.48;39.94;101554.69;4490914;31;34744;-80
2022/03/23 00:03:15;;;;;;;27.05;13.38;;;;;;;6.52;40.47;101559.06;4493446;31;33561;-80
2022/03/23 00:05:44;;;;;;;24.20;11.65;;;;;;;6.55;40.30;101561.69;4477317;31;32391;-80
2022/03/23 00:08:12;;;;;;;22.60;11.18;;;;;;;6.31;41.02;101547.66;4477980;31;33872;-80
2022/03/23 00:10:40;;;;;;;22.23;10.52;;;;;;;6.02;41.67;101551.97;4476562;31;32618;-80
2022/03/23 00:13:07;;;;;;;17.42;9.00;;;;;;;6.09;41.68;101548.50;4490956;31;33649;-81
2022/03/23 00:15:35;;;;;;;16.35;8.13;;;;;;;6.28;41.19;101552.03;4479120;31;32668;-81
2022/03/23 00:18:03;;;;;;;18.40;8.98;;;;;;;6.13;41.82;101547.66;4475905;31;34601;-81
2022/03/23 00:20:31;;;;;;;16.20;8.55;;;;;;;5.86;42.16;101544.03;4492296;31;33184;-81
2022/03/23 00:22:59;;;;;;;12.25;6.30;;;;;;;6.07;41.86;101547.59;4479650;31;32745;-81
2022/03/23 00:25:27;;;;;;;11.48;7.30;;;;;;;6.19;41.35;101549.41;4488601;31;32940;-81
2022/03/23 00:27:54;;;;;;;13.02;7.55;;;;;;;6.14;41.59;101538.91;4490877;31;33868;-81
2022/03/23 00:30:22;;;;;;;12.05;6.72;;;;;;;6.34;41.13;101538.94;4479430;31;33652;-81
2022/03/23 00:32:50;;;;;;;15.18;7.70;;;;;;;6.46;40.92;101531.09;4494316;31;33598;-81
2022/03/23 00:35:18;;;;;;;13.90;8.45;;;;;;;6.22;41.21;101531.94;4480147;31;32466;-81
2022/03/23 00:37:46;;;;;;;16.10;9.07;;;;;;;6.20;41.20;101536.28;4487307;31;33530;-81
2022/03/23 00:40:14;;;;;;;15.50;7.85;;;;;;;6.18;41.53;101532.78;4492944;31;34115;-81
2022/03/23 00:42:42;;;;;;;15.40;7.50;;;;;;;5.85;42.02;101529.16;4488996;31;33555;-81
2022/03/23 00:45:11;;;;;;;11.02;6.82;;;;;;;6.29;41.32;101527.56;4480174;31;33940;-82
2022/03/23 00:47:41;;;;;;;11.52;6.30;;;;;;;6.17;41.40;101528.37;4480437;31;34182;-82
2022/03/23 00:50:09;;;;;;;14.23;8.43;;;;;;;6.23;41.29;101517.94;4489058;31;33776;-81
2022/03/23 00:52:37;;;;;;;13.48;8.00;;;;;;;6.00;41.86;101520.50;4491715;31;33682;-81
2022/03/23 00:55:09;;;;;;;18.83;8.88;;;;;;;6.03;41.65;101524.84;4491093;31;33399;-80
2022/03/23 00:57:38;;;;;;;15.77;8.77;;;;;;;5.78;42.36;101530.00;4491726;31;33804;-81
2022/03/23 01:00:12;;;;;;;18.15;9.63;;;;;;;5.67;42.48;101521.25;4486608;31;34079;-81
2022/03/23 01:02:40;;;;;;;16.45;9.55;;;;;;;6.00;41.71;101523.12;4477930;31;32403;-80
2022/03/23 01:05:09;;;;;;;14.40;7.50;;;;;;;5.79;42.46;101525.63;4475260;31;32675;-80
2022/03/23 01:07:37;;;;;;;12.82;7.60;;;;;;;5.82;42.35;101516.03;4476197;31;32792;-80
2022/03/23 01:10:07;;;;;;;14.35;7.53;;;;;;;5.65;42.64;101513.38;4489835;31;34463;-80
2022/03/23 01:12:35;;;;;;;13.88;7.62;;;;;;;5.56;42.95;101510.72;4492124;31;33756;-80
2022/03/23 01:15:03;;;;;;;18.55;9.45;;;;;;;5.28;43.26;101520.19;4476307;31;33394;-80
2022/03/23 01:17:31;;;;;;;11.82;6.97;;;;;;;5.82;42.38;101517.78;4492145;31;33927;-80
2022/03/23 01:19:59;;;;;;;14.73;6.90;;;;;;;5.51;43.33;101520.31;4475954;31;32834;-80
2022/03/23 01:22:26;;;;;;;17.40;8.55;;;;;;;5.46;43.12;101519.41;4488390;31;33762;-80
2022/03/23 01:24:54;;;;;;;14.07;6.87;;;;;;;5.32;43.47;101518.47;4487963;31;33961;-80
2022/03/23 01:27:22;;;;;;;13.20;6.75;;;;;;;5.50;43.14;101521.16;4488763;31;34619;-80
2022/03/23 01:29:49;;;;;;;14.60;6.82;;;;;;;5.03;43.79;101513.03;4475920;31;32634;-80
2022/03/23 01:32:17;;;;;;;13.20;6.80;;;;;;;5.26;43.47;101518.41;4477695;31;34070;-81
2022/03/23 01:34:45;;;;;;;10.15;6.32;;;;;;;5.20;43.69;101514.03;4495435;31;34022;-81
2022/03/23 01:37:13;;;;;;;12.23;7.60;;;;;;;5.25;43.10;101509.69;4468585;31;33839;-81
2022/03/23 01:39:40;;;;;;;16.35;7.53;;;;;;;5.06;43.74;101498.22;4478383;31;34658;-81
2022/03/23 01:42:09;;;;;;;27.02;10.90;;;;;;;5.25;43.72;101501.81;4479548;31;33404;-81
2022/03/23 01:44:37;;;;;;;29.40;11.73;;;;;;;5.09;43.97;101507.84;4490891;31;33744;-81
2022/03/23 01:47:14;;;;;;;26.50;11.93;;;;;;;5.44;43.14;101496.69;4480991;31;33406;-80
2022/03/23 01:49:43;;;;;;;32.03;14.27;;;;;;;5.37;43.14;101503.66;4492563;31;33402;-81
2022/03/23 01:52:14;;;;;;;31.35;12.55;;;;;;;5.15;43.71;101505.28;4492623;31;33593;-81
2022/03/23 01:54:42;;;;;;;20.73;10.88;;;;;;;4.80;44.29;101500.69;4477527;31;32044;-81
2022/03/23 01:57:13;;;;;;;23.70;10.57;;;;;;;4.83;44.48;101503.31;4489835;31;32258;-81
2022/03/23 01:59:40;;;;;;;29.90;12.00;;;;;;;4.80;44.76;101508.53;4468574;31;34025;-81
2022/03/23 02:02:08;;;;;;;20.75;10.27;;;;;;;4.87;44.34;101494.63;4477734;31;33525;-81
2022/03/23 02:04:38;;;;;;;29.55;12.25;;;;;;;4.80;44.66;101495.47;4481598;31;33219;-81
2022/03/23 02:07:06;;;;;;;26.42;10.70;;;;;;;4.73;44.97;101505.84;4491828;31;34106;-81
2022/03/23 02:09:36;;;;;;;22.80;10.50;;;;;;;5.17;43.74;101498.28;4489516;31;33990;-80
2022/03/23 02:12:08;;;;;;;25.48;9.75;;;;;;;4.99;44.14;101504.31;4460863;31;33171;-81
2022/03/23 02:14:36;;;;;;;18.20;9.13;;;;;;;4.86;44.27;101505.97;4478444;31;32343;-81
2022/03/23 02:17:05;;;;;;;22.02;10.38;;;;;;;4.88;44.17;101501.59;4492704;31;33675;-81
2022/03/23 02:19:35;;;;;;;17.87;8.05;;;;;;;4.89;44.12;101505.13;4487776;31;34117;-81
2022/03/23 02:22:03;;;;;;;12.40;6.97;;;;;;;4.91;43.98;101495.53;4490973;31;33840;-81
2022/03/23 02:24:32;;;;;;;18.10;7.85;;;;;;;4.74;44.17;101499.75;4493171;31;32956;-81
2022/03/23 02:27:00;;;;;;;19.52;8.68;;;;;;;4.86;43.94;101497.25;4481081;31;33839;-81
2022/03/23 02:29:31;;;;;;;12.43;7.85;;;;;;;4.84;44.36;101502.47;4489145;31;33898;-81
2022/03/23 02:32:04;;;;;;;19.50;7.50;;;;;;;5.08;43.43;101508.69;4476399;31;33458;-82
2022/03/23 02:34:32;;;;;;;17.30;7.60;;;;;;;4.84;43.86;101497.25;4478945;31;33021;-83
2022/03/23 02:37:00;;;;;;;15.13;7.28;;;;;;;5.10;43.41;101507.84;4488608;31;34236;-82
2022/03/23 02:39:28;;;;;;;16.48;7.03;;;;;;;5.04;43.45;101501.72;4492187;31;34705;-81
2022/03/23 02:41:56;;;;;;;15.70;6.93;;;;;;;4.80;43.94;101508.53;4489524;31;33330;-81
2022/03/23 02:44:29;;;;;;;15.55;7.50;;;;;;;4.99;43.58;101508.69;4479358;31;32984;-82
2022/03/23 02:46:57;;;;;;;11.85;5.95;;;;;;;4.72;44.12;101504.97;4481752;31;32473;-82
2022/03/23 02:49:25;;;;;;;8.50;5.53;;;;;;;4.46;44.73;101501.28;4490976;31;33861;-82
2022/03/23 02:51:53;;;;;;;14.85;6.85;;;;;;;4.83;43.70;101505.94;4477930;31;32449;-81
2022/03/23 03:03:16;;;;;;;13.48;7.53;;;;;;;4.68;44.07;101507.56;4477775;31;32264;-82
2022/03/23 03:05:44;;;;;;;12.60;6.78;;;;;;;4.37;45.02;101502.97;4490580;31;34058;-80
2022/03/23 03:10:58;;;;;;;13.13;5.93;;;;;;;4.52;44.45;101501.34;4491224;31;34003;-81
2022/03/23 03:13:28;;;;;;;15.25;7.72;;;;;;;4.48;44.47;101504.78;4491046;31;33755;-81
2022/03/23 03:16:02;;;;;;;12.15;6.22;;;;;;;4.65;43.74;101497.94;4479962;31;33277;-80
2022/03/23 03:18:34;;;;;;;13.90;5.55;;;;;;;4.73;43.86;101511.97;4490443;31;33688;-81
2022/03/23 03:21:06;;;;;;;11.48;6.32;;;;;;;4.84;43.54;101502.47;4478581;31;33170;-81
2022/03/23 03:23:36;;;;;;;13.75;6.60;;;;;;;4.68;44.19;101502.34;4490152;31;33458;-80
2022/03/23 03:26:06;;;;;;;16.17;6.25;;;;;;;4.71;44.09;101515.44;4492684;31;33462;-80
2022/03/23 03:28:36;;;;;;;15.10;6.82;;;;;;;4.82;43.74;101504.19;4492698;31;34206;-80
2022/03/23 03:31:05;;;;;;;14.13;6.40;;;;;;;4.62;44.16;101503.16;4472705;31;33026;-80
2022/03/23 03:33:33;;;;;;;14.90;7.20;;;;;;;4.43;44.49;101506.50;4490122;31;33417;-80
2022/03/23 03:36:03;;;;;;;15.80;7.05;;;;;;;4.71;43.98;101498.00;4491998;31;34058;-80
2022/03/23 03:38:31;;;;;;;14.87;6.78;;;;;;;4.61;44.22;101497.06;4465788;31;32731;-80
2022/03/23 03:40:59;;;;;;;14.30;6.72;;;;;;;4.97;43.63;101492.94;4494415;31;34451;-81
2022/03/23 03:43:27;;;;;;;17.10;6.72;;;;;;;4.69;44.11;101498.84;4492807;31;33550;-81
2022/03/23 03:45:54;;;;;;;13.02;7.35;;;;;;;4.60;44.38;101499.66;4492113;31;33393;-81
2022/03/23 03:48:22;;;;;;;13.60;6.57;;;;;;;4.73;43.96;101484.94;4491477;31;33389;-80
2022/03/23 03:50:51;;;;;;;10.75;6.35;;;;;;;4.46;44.39;101486.44;4477756;31;33068;-81
2022/03/23 03:53:18;;;;;;;13.40;6.90;;;;;;;4.63;44.05;101492.72;4476640;31;33709;-81
2022/03/23 03:55:53;;;;;;;15.52;6.50;;;;;;;4.45;44.60;101496.91;4490420;31;33475;-80
2022/03/23 03:58:21;;;;;;;14.18;6.15;;;;;;;4.60;44.11;101494.41;4464993;31;32699;-81
2022/03/23 04:00:49;;;;;;;14.98;7.25;;;;;;;4.58;44.01;101496.16;4476825;31;34302;-81
2022/03/23 04:03:17;;;;;;;13.35;7.32;;;;;;;4.30;44.83;101498.53;4476766;31;32153;-81
2022/03/23 04:05:45;;;;;;;13.23;6.32;;;;;;;4.24;44.68;101492.38;4478304;31;32994;-81
2022/03/23 04:08:13;;;;;;;17.30;6.40;;;;;;;4.22;45.37;101496.69;4471868;31;33137;-81
2022/03/23 04:10:41;;;;;;;14.02;7.28;;;;;;;4.26;44.97;101504.59;4492566;31;34673;-81
2022/03/23 04:13:09;;;;;;;14.10;7.47;;;;;;;4.52;45.00;101504.84;4490245;31;33745;-80
2022/03/23 04:15:37;;;;;;;9.63;5.90;;;;;;;4.03;45.81;101503.47;4478362;31;32251;-81
2022/03/23 04:18:05;;;;;;;10.95;6.60;;;;;;;4.05;45.94;101502.66;4477028;31;32647;-81
2022/03/23 04:20:33;;;;;;;12.60;6.25;;;;;;;4.17;45.02;101499.28;4478163;31;33129;-81
2022/03/23 04:23:01;;;;;;;11.77;6.60;;;;;;;4.16;45.02;101500.12;4476719;31;33695;-81
2022/03/23 04:25:28;;;;;;;18.73;7.20;;;;;;;4.72;41.53;101494.53;4492196;31;33500;-81
2022/03/23 04:27:58;;;;;;;13.07;6.25;;;;;;;4.76;41.94;101491.06;4478439;31;32628;-81
2022/03/23 04:30:30;;;;;;;11.65;6.10;;;;;;;5.57;40.12;101482.78;4484817;31;33867;-81
2022/03/23 04:32:59;;;;;;;14.95;6.32;;;;;;;6.18;37.77;101477.72;4480284;31;34141;-81
2022/03/23 04:35:27;;;;;;;20.83;6.20;;;;;;;6.69;36.06;101475.94;4476197;31;32263;-81
2022/03/23 04:37:56;;;;;;;15.77;5.95;;;;;;;7.03;35.45;101475.91;4478607;31;33300;-81
2022/03/23 04:40:24;;;;;;;12.70;5.90;;;;;;;7.43;34.08;101472.25;4469964;31;33206;-81
2022/03/23 04:42:52;;;;;;;10.90;6.22;;;;;;;7.86;33.05;101461.53;4478706;31;33423;-81
2022/03/23 04:45:20;;;;;;;17.98;6.90;;;;;;;8.17;32.29;101463.97;4478889;31;34027;-81
2022/03/23 04:47:48;;;;;;;13.90;6.75;;;;;;;8.49;32.36;101473.38;4465704;31;33400;-81
2022/03/23 04:50:20;;;;;;;16.30;6.93;;;;;;;8.57;32.01;101472.44;4490654;31;33683;-81
2022/03/23 04:52:52;;;;;;;15.40;6.43;;;;;;;9.15;30.81;101465.72;4488571;31;33733;-81
2022/03/23 04:55:20;;;;;;;16.08;7.28;;;;;;;9.11;31.03;101472.75;4477048;31;32681;-81
2022/03/23 04:57:48;;;;;;;17.05;7.07;;;;;;;9.09;31.60;101478.97;4489235;31;33854;-81
2022/03/23 05:00:17;;;;;;;13.82;6.80;;;;;;;8.86;31.67;101477.44;4489448;31;33230;-81
2022/03/23 05:02:45;;;;;;;17.02;7.40;;;;;;;9.42;31.36;101470.66;4490534;31;33446;-81
2022/03/23 05:05:14;;;;;;;11.82;6.18;;;;;;;9.25;31.61;101475.25;4476989;31;33782;-82
2022/03/23 05:07:42;;;;;;;11.90;7.05;;;;;;;9.06;31.58;101487.75;4486448;31;34181;-81
2022/03/23 05:10:12;;;;;;;16.50;7.43;;;;;;;9.33;31.67;101477.81;4478137;31;33787;-82
2022/03/23 05:12:42;;;;;;;18.10;6.57;;;;;;;9.41;32.46;101484.75;4474903;31;32621;-81
2022/03/23 05:15:10;;;;;;;15.07;7.47;;;;;;;9.04;31.57;101488.69;4490167;31;34155;-82
2022/03/23 05:17:38;;;;;;;15.73;7.10;;;;;;;9.32;32.81;101495.38;4491020;31;32959;-82
2022/03/23 05:20:07;;;;;;;13.02;7.97;;;;;;;9.06;34.16;101492.16;4486500;31;33924;-81
2022/03/23 05:22:37;;;;;;;17.17;7.18;;;;;;;9.04;34.33;101496.56;4477825;31;33344;-81
2022/03/23 05:25:06;;;;;;;14.20;6.70;;;;;;;9.20;34.54;101506.94;4489528;31;33144;-81
2022/03/23 05:27:35;;;;;;;18.05;7.12;;;;;;;8.77;35.09;101506.47;4476858;31;33408;-81
2022/03/23 05:30:04;;;;;;;20.37;7.35;;;;;;;8.03;36.77;101511.41;4489925;31;34231;-81
2022/03/23 05:32:33;;;;;;;18.33;6.93;;;;;;;8.11;37.11;101509.59;4479579;31;33407;-81
2022/03/23 05:35:00;;;;;;;17.17;7.20;;;;;;;7.82;37.73;101517.63;4489304;31;33891;-81
2022/03/23 05:37:28;;;;;;;26.45;7.65;;;;;;;7.77;37.95;101511.53;4474196;31;33432;-82
2022/03/23 05:39:56;;;;;;;14.80;7.18;;;;;;;7.43;38.86;101514.31;4475960;31;34455;-81
2022/03/23 05:42:24;;;;;;;17.27;8.25;;;;;;;7.22;39.51;101517.00;4477349;31;33863;-81
2022/03/23 05:44:51;;;;;;;15.48;8.95;;;;;;;7.76;39.09;101509.78;4488837;31;33048;-81
2022/03/23 05:47:20;;;;;;;18.85;7.30;;;;;;;7.80;38.85;101508.91;4463182;31;33038;-82
2022/03/23 05:49:48;;;;;;;22.87;6.68;;;;;;;7.79;36.78;101509.78;4490292;31;33339;-81
2022/03/23 05:52:16;;;;;;;21.80;7.62;;;;;;;8.00;34.78;101506.16;4491365;31;32985;-80
2022/03/23 05:54:44;;;;;;;13.93;7.68;;;;;;;8.45;34.46;101509.38;4478286;31;32269;-80
2022/03/23 05:57:12;;;;;;;14.10;6.68;;;;;;;9.02;32.99;101500.97;4473082;31;34543;-80
2022/03/23 05:59:41;;;;;;;18.95;8.43;;;;;;;9.55;31.82;101491.63;4476535;31;34537;-80
2022/03/23 06:02:09;;;;;;;16.08;7.40;;;;;;;9.98;31.58;101492.78;4492084;31;32640;-80
2022/03/23 06:04:37;;;;;;;16.48;6.47;;;;;;;10.40;30.11;101500.97;4486450;31;33983;-81
2022/03/23 06:07:05;;;;;;;17.00;8.60;;;;;;;10.76;30.20;101493.34;4489927;31;33775;-80
2022/03/23 06:09:33;;;;;;;12.60;6.87;;;;;;;11.19;29.13;101489.91;4489840;31;33192;-80
2022/03/23 06:12:04;;;;;;;12.32;7.12;;;;;;;11.41;28.18;101488.59;4468595;32;32382;-80
2022/03/23 06:14:32;;;;;;;14.63;7.15;;;;;;;11.74;27.88;101486.12;4476033;31;32897;-80
2022/03/23 06:17:00;;;;;;;15.10;7.07;;;;;;;12.03;27.50;101490.81;4489231;31;33686;-80
2022/03/23 06:19:28;;;;;;;16.52;8.13;;;;;;;12.02;27.97;101492.59;4487934;31;33550;-80
2022/03/23 06:21:55;;;;;;;16.33;7.62;;;;;;;12.30;27.22;101486.66;4493978;31;33477;-80
2022/03/23 06:24:23;;;;;;;19.08;7.47;;;;;;;12.57;26.52;101480.66;4480780;31;32054;-81
2022/03/23 06:26:50;;;;;;;15.68;8.10;;;;;;;12.97;26.15;101487.59;4465133;31;33157;-80
2022/03/23 06:29:18;;;;;;;15.30;8.23;;;;;;;12.74;27.04;101487.34;4494016;31;33933;-80
2022/03/23 06:31:45;;;;;;;20.35;8.98;;;;;;;13.10;26.10;101485.47;4477611;31;34413;-80
2022/03/23 06:34:14;;;;;;;18.92;8.48;;;;;;;13.20;26.10;101491.41;4479557;31;32102;-78
2022/03/23 06:36:41;;;;;;;17.58;8.77;;;;;;;13.04;26.77;101491.81;4475963;31;33711;-78
2022/03/23 06:39:09;;;;;;;16.45;8.40;;;;;;;12.99;26.08;101488.41;4492242;31;33743;-82
2022/03/23 06:41:37;;;;;;;14.25;9.27;;;;;;;13.35;26.03;101485.72;4477544;32;33532;-78
2022/03/23 06:44:05;;;;;;;18.45;8.50;;;;;;;13.39;25.05;101481.16;4492281;31;33063;-80
2022/03/23 06:46:32;;;;;;;18.00;7.93;;;;;;;13.10;25.84;101492.56;4495939;31;34430;-80
2022/03/23 06:49:00;;;;;;;20.15;9.05;;;;;;;13.60;25.03;101485.00;4493835;31;33585;-80
2022/03/23 06:51:28;;;;;;;16.70;8.65;;;;;;;13.68;25.49;101494.47;4466082;31;33479;-80
2022/03/23 06:53:55;;;;;;;16.12;7.80;;;;;;;13.36;25.08;101490.09;4479945;31;32737;-80
2022/03/23 06:56:23;;;;;;;16.08;8.20;;;;;;;13.74;24.63;101488.97;4493132;31;33803;-81
2022/03/23 06:58:51;;;;;;;13.48;8.50;;;;;;;13.93;24.99;101483.97;4489573;31;34171;-80
2022/03/23 07:01:18;;;;;;;14.75;8.00;;;;;;;14.06;24.32;101490.66;4477055;31;33757;-78
2022/03/23 07:03:48;;;;;;;17.95;7.30;;;;;;;14.21;24.55;101483.12;4476096;31;32703;-78
2022/03/23 07:06:16;;;;;;;17.08;8.75;;;;;;;14.33;24.20;101488.88;4482017;31;33522;-80
2022/03/23 07:11:31;;;;;;;19.23;7.80;;;;;;;14.33;25.53;101483.56;4490775;31;33586;-78
2022/03/23 07:13:58;;;;;;;18.62;8.85;;;;;;;14.51;23.79;101489.25;4490648;31;32590;-78
2022/03/23 07:16:28;;;;;;;18.77;8.80;;;;;;;14.82;24.11;101483.78;4480040;31;33447;-79
2022/03/23 07:18:56;;;;;;;33.63;9.63;;;;;;;15.03;23.86;101485.69;4490507;31;33141;-79
2022/03/23 07:21:23;;;;;;;18.12;8.57;;;;;;;15.15;23.44;101494.16;4477583;31;33825;-78
2022/03/23 07:23:51;;;;;;;15.90;8.82;;;;;;;14.54;24.21;101491.81;4487713;31;34015;-78
2022/03/23 07:26:21;;;;;;;15.82;8.05;;;;;;;14.57;24.04;101500.56;4478095;31;32365;-78
2022/03/23 07:28:49;;;;;;;15.40;8.50;;;;;;;14.78;24.40;101487.47;4491929;31;34692;-78
2022/03/23 07:31:17;;;;;;;15.98;9.07;;;;;;;15.18;22.88;101486.06;4492855;31;33780;-80
2022/03/23 07:33:45;;;;;;;15.60;8.25;;;;;;;15.21;23.25;101477.97;4476154;31;33074;-80
2022/03/23 07:36:12;;;;;;;18.40;9.80;;;;;;;15.16;23.78;101493.25;4480812;31;33846;-81
2022/03/23 07:38:40;;;;;;;17.08;9.70;;;;;;;14.98;23.26;101486.75;4494886;31;33697;-80
2022/03/23 07:41:08;;;;;;;16.12;9.07;;;;;;;14.75;23.59;101490.22;4480105;32;34504;-80
2022/03/23 07:43:36;;;;;;;14.38;9.32;;;;;;;15.15;23.81;101484.37;4489296;31;32995;-80
2022/03/23 07:46:03;;;;;;;14.50;8.93;;;;;;;15.23;23.08;101482.28;4492391;31;33998;-80
2022/03/23 07:48:31;;;;;;;18.42;9.65;;;;;;;15.64;23.29;101479.06;4475529;31;34335;-80
2022/03/23 07:50:59;;;;;;;16.87;9.55;;;;;;;15.50;23.14;101475.09;4490024;31;34434;-81
2022/03/23 07:53:30;;;;;;;15.98;9.27;;;;;;;15.67;23.01;101482.50;4493991;31;32966;-80
2022/03/23 07:55:58;;;;;;;15.48;9.30;;;;;;;16.35;22.67;101480.69;4465315;31;32174;-80
2022/03/23 07:58:28;;;;;;;20.08;10.00;;;;;;;16.24;22.31;101485.59;4489976;31;33564;-82
2022/03/23 08:00:57;;;;;;;15.85;9.80;;;;;;;16.28;22.49;101487.19;4489563;31;33440;-80
2022/03/23 08:03:26;;;;;;;26.80;9.82;;;;;;;16.30;22.21;101477.34;4495167;31;32920;-81
2022/03/23 08:05:54;;;;;;;20.75;10.05;;;;;;;16.52;23.12;101472.88;4463629;31;32391;-81
2022/03/23 08:08:22;;;;;;;20.83;10.40;;;;;;;16.65;22.31;101471.41;4489279;31;34657;-81
2022/03/23 08:10:51;;;;;;;18.23;10.43;;;;;;;16.80;21.72;101472.56;4492515;31;33695;-81
2022/03/23 08:13:19;;;;;;;18.40;9.57;;;;;;;16.39;21.97;101474.31;4479652;31;33150;-82
2022/03/23 08:15:46;;;;;;;15.23;9.20;;;;;;;16.15;22.10;101473.50;4475139;31;32575;-81
2022/03/23 08:18:17;;;;;;;18.05;10.70;;;;;;;16.22;22.11;101476.78;4492934;31;35053;-81
2022/03/23 08:20:54;;;;;;;15.52;9.88;;;;;;;16.06;22.36;101474.75;4481737;31;33079;-81
2022/03/23 08:23:25;;;;;;;19.55;10.00;;;;;;;15.92;22.26;101477.09;4491362;31;34552;-81
2022/03/23 08:25:52;;;;;;;20.90;10.70;;;;;;;16.55;22.27;101470.06;4491063;31;33747;-81
2022/03/23 08:28:20;;;;;;;13.75;9.70;;;;;;;16.69;21.96;101479.28;4490180;31;32929;-81
2022/03/23 08:30:48;;;;;;;21.08;9.15;;;;;;;16.91;21.42;101469.47;4490087;31;33304;-81
2022/03/23 08:33:15;;;;;;;20.12;8.98;;;;;;;17.22;21.37;101462.75;4492202;31;33275;-81
2022/03/23 08:35:43;;;;;;;16.25;9.43;;;;;;;17.10;20.75;101459.72;4486413;31;33501;-81
2022/03/23 08:38:12;;;;;;;15.15;9.63;;;;;;;17.48;21.25;101465.13;4492713;31;32868;-81
2022/03/23 08:40:39;;;;;;;16.55;9.68;;;;;;;17.50;22.07;101463.25;4488619;31;33488;-82
2022/03/23 08:43:07;;;;;;;14.10;9.10;;;;;;;17.44;20.90;101465.34;4474678;31;33102;-81
2022/03/23 08:45:35;;;;;;;18.40;8.93;;;;;;;17.97;20.15;101457.50;4478463;31;34817;-81
2022/03/23 08:48:03;;;;;;;20.45;9.25;;;;;;;17.78;19.92;101457.50;4489726;31;33719;-81
2022/03/23 08:50:31;;;;;;;14.63;9.35;;;;;;;17.72;20.71;101456.91;4478665;31;32539;-81
2022/03/23 08:53:00;;;;;;;17.27;8.60;;;;;;;17.41;20.85;101461.00;4477470;31;32689;-81
2022/03/23 08:55:31;;;;;;;16.75;10.32;;;;;;;17.90;20.18;101466.75;4478988;31;33960;-81
2022/03/23 08:57:59;;;;;;;19.02;8.48;;;;;;;18.29;20.06;101465.75;4475177;31;34074;-79
2022/03/23 09:00:27;;;;;;;15.68;9.73;;;;;;;18.39;19.94;101459.88;4473990;31;33298;-79
2022/03/23 09:02:54;;;;;;;18.87;10.30;;;;;;;18.42;19.45;101453.53;4474685;31;33427;-82
2022/03/23 09:05:23;;;;;;;14.75;9.55;;;;;;;18.75;19.95;101455.44;4492823;31;34346;-81
2022/03/23 09:07:50;;;;;;;16.92;9.32;;;;;;;18.55;19.61;101454.63;4489546;31;33656;-81
2022/03/23 09:10:19;;;;;;;10.98;8.30;;;;;;;18.77;21.36;101446.41;4487256;31;34152;-79
2022/03/23 09:12:48;;;;;;;17.87;9.73;;;;;;;19.24;20.07;101439.50;4477142;31;32828;-79
2022/03/23 09:15:16;;;;;;;15.65;8.63;;;;;;;19.28;18.23;101438.38;4475414;31;32522;-80
2022/03/23 09:17:44;;;;;;;14.00;9.38;;;;;;;19.67;18.61;101438.91;4490252;31;34676;-79
2022/03/23 09:20:13;;;;;;;15.13;8.57;;;;;;;19.58;18.48;101436.69;4474141;31;32422;-79
2022/03/23 09:22:41;;;;;;;14.98;9.57;;;;;;;19.85;18.68;101433.47;4477026;31;33281;-79
2022/03/23 09:25:12;;;;;;;15.95;8.85;;;;;;;19.45;18.24;101438.31;4490511;31;33974;-80
2022/03/23 09:27:43;;;;;;;11.43;8.35;;;;;;;19.57;19.06;101431.44;4486960;31;33248;-80
2022/03/23 09:30:13;;;;;;;20.23;8.32;;;;;;;19.87;17.56;101428.88;4488313;31;33509;-80
2022/03/23 09:32:43;;;;;;;18.12;8.77;;;;;;;19.57;17.94;101429.63;4476845;31;33002;-80
2022/03/23 09:35:11;;;;;;;16.98;9.43;;;;;;;19.70;18.05;101435.16;4489117;31;33420;-80
2022/03/23 09:37:48;;;;;;;12.20;7.97;;;;;;;19.88;18.20;101430.59;4487888;31;33694;-78
2022/03/23 09:40:30;;;;;;;17.15;8.60;;;;;;;19.24;18.13;101431.47;4475911;31;33255;-80
2022/03/23 09:43:03;;;;;;;11.80;7.12;;;;;;;19.49;17.91;101421.13;4470900;31;32350;-80
2022/03/23 09:47:59;;;;;;;13.48;7.87;;;;;;;20.04;17.72;101423.44;4489756;31;33687;-82
2022/03/23 09:50:32;;;;;;;19.33;7.75;;;;;;;20.50;16.78;101415.38;4462894;31;32740;-80
2022/03/23 09:53:00;;;;;;;11.27;7.05;;;;;;;20.31;17.24;101420.06;4485760;31;33154;-80
2022/03/23 09:55:28;;;;;;;17.48;8.50;;;;;;;19.76;17.59;101417.91;4491109;31;33812;-80
2022/03/23 09:57:57;;;;;;;11.57;6.87;;;;;;;20.46;16.86;101398.59;4479541;31;32742;-80
2022/03/23 10:00:29;;;;;;;15.63;7.22;;;;;;;20.50;18.18;101410.00;4479244;31;33593;-80
2022/03/23 10:02:57;;;;;;;13.88;7.07;;;;;;;20.40;16.60;101412.34;4490981;31;33750;-80
2022/03/23 10:05:46;;;;;;;12.73;6.90;;;;;;;20.63;16.34;101411.00;4492777;31;34331;-80
2022/03/23 10:08:43;;;;;;;13.65;7.00;;;;;;;20.82;17.08;101404.53;4496771;31;33801;-80
2022/03/23 10:11:48;;;;;;;11.65;7.05;;;;;;;21.08;16.22;101395.75;4485495;31;33315;-80
2022/03/23 10:14:28;;;;;;;13.73;6.75;;;;;;;20.89;16.65;101395.16;4477818;31;32680;-80
2022/03/23 10:17:14;;;;;;;13.38;7.50;;;;;;;21.11;15.89;101394.69;4491964;31;32183;-80
2022/03/23 10:19:43;;;;;;;12.80;6.87;;;;;;;21.20;16.51;101400.34;4490776;31;33685;-82
2022/03/23 10:22:14;;;;;;;16.05;8.38;;;;;;;20.46;16.16;101403.97;4476731;31;32679;-82
2022/03/23 10:24:42;;;;;;;13.98;7.15;;;;;;;20.91;16.35;101403.97;4495432;31;34602;-80
2022/03/23 10:27:17;;;;;;;12.50;7.12;;;;;;;21.28;15.02;101388.25;4478277;31;33405;-79
2022/03/23 10:29:49;;;;;;;14.75;7.68;;;;;;;21.34;15.18;101386.06;4493776;31;33814;-79
2022/03/23 10:32:17;;;;;;;10.63;6.40;;;;;;;20.14;16.11;101397.81;4490957;31;33654;-80
2022/03/23 10:34:50;;;;;;;11.15;6.45;;;;;;;20.98;15.70;101375.75;4478788;31;33453;-79
2022/03/23 10:37:29;;;;;;;12.98;6.95;;;;;;;21.51;15.58;101370.66;4476673;31;33517;-80
2022/03/23 10:39:59;;;;;;;13.43;6.85;;;;;;;21.53;15.38;101363.38;4488439;31;33789;-80
2022/03/23 10:42:29;;;;;;;13.65;7.05;;;;;;;21.57;15.74;101365.78;4492813;31;32102;-80
2022/03/23 10:45:09;;;;;;;16.12;7.43;;;;;;;20.90;15.70;101370.03;4471838;31;32766;-79
2022/03/23 10:47:38;;;;;;;10.00;7.03;;;;;;;21.56;15.70;101358.69;4489034;31;33816;-80
2022/03/23 10:50:21;;;;;;;10.15;6.97;;;;;;;21.52;15.94;101353.59;4502352;31;34790;-80
2022/03/23 10:52:50;;;;;;;;;;;;;;;22.13;14.25;101347.75;4488628;31;33020;-80
2022/03/23 10:55:19;;;;;;;8.27;6.62;;;;;;;21.72;14.45;101351.34;4495533;31;32853;-81
2022/03/23 10:57:50;;;;;;;15.65;7.20;;;;;;;21.77;15.27;101358.25;4479644;31;34751;-80
2022/03/23 11:00:38;;;;;;;12.60;7.43;;;;;;;22.07;14.81;101334.66;4494377;31;33564;-81
2022/03/23 11:03:09;;;;;;;9.07;5.75;;;;;;;21.91;14.85;101336.66;4490160;31;33853;-80
2022/03/23 11:05:48;;;;;;;14.85;7.03;;;;;;;21.73;14.38;101339.59;4489702;31;32934;-80
2022/03/23 11:08:20;;;;;;;8.43;6.78;;;;;;;21.81;18.01;101335.56;4478121;31;33592;-80
2022/03/23 11:16:31;;;;;;;12.70;6.75;;;;;;;22.47;13.75;101316.69;4491555;31;32618;-80
2022/03/23 11:19:12;;;;;;;12.13;6.57;;;;;;;22.57;14.96;101319.59;4487701;31;34588;-81
2022/03/23 11:22:09;;;;;;;9.52;6.68;;;;;;;22.99;13.41;101312.19;4490418;31;33839;-81
2022/03/23 11:24:43;;;;;;;10.30;6.45;;;;;;;22.70;13.69;101314.25;4479897;31;34234;-82
2022/03/23 11:27:18;;;;;;;7.65;5.85;;;;;;;22.62;18.11;101306.69;4493225;31;34458;-82
2022/03/23 11:29:48;;;;;;;7.95;5.97;;;;;;;22.71;15.95;101306.03;4489423;31;34413;-82
2022/03/23 11:32:19;;;;;;;14.70;5.93;;;;;;;23.45;15.67;101306.12;4489525;31;34402;-83
2022/03/23 11:34:48;;;;;;;12.93;6.87;;;;;;;23.72;16.61;101287.94;4476999;31;32729;-83
2022/03/23 11:37:19;;;;;;;12.37;5.93;;;;;;;24.01;12.42;101287.56;4475617;31;34165;-83
2022/03/23 11:39:49;;;;;;;9.43;5.53;;;;;;;23.79;12.23;101293.75;4481296;31;32389;-83
2022/03/23 11:42:17;;;;;;;10.27;6.18;;;;;;;22.47;12.80;101291.63;4480385;31;32889;-83
2022/03/23 11:44:49;;;;;;;10.55;6.95;;;;;;;23.13;12.67;101279.72;4476305;31;32735;-83
2022/03/23 11:47:38;;;;;;;10.55;6.15;;;;;;;23.28;12.58;101282.28;4476577;31;33266;-83
2022/03/23 11:50:30;;;;;;;11.65;5.55;;;;;;;23.51;12.48;101267.94;4478882;31;33191;-83
2022/03/23 11:53:08;;;;;;;8.00;5.53;;;;;;;23.13;12.90;101268.94;4479724;31;34855;-83
2022/03/23 11:55:37;;;;;;;11.02;6.10;;;;;;;23.79;12.12;101269.47;4476859;31;33776;-81